Time;durP1;ratioP1;P1;durP2;ratioP2;P2;SDS_P1;SDS_P2;PMS_P1;PMS_P2;Temp;Humidity;BMP_temperature;BMP_pressure;BME280_temperature;BME280_humidity;BME280_pressure;Samples;Min_cycle;Max_cycle;Signal;HPM_P1;HPM_P2
2023/08/22 06:17:28;;;;;;;;;3.67;3.67;;;;;;;;5816242;22;46308;-73
2023/08/22 06:19:54;;;;;;;;;4.00;4.00;;;;;;;;5011561;28;45441;-73
2023/08/22 06:22:19;;;;;;;;;5.00;4.00;;;;;;;;5013461;28;45537;-72
2023/08/22 06:24:44;;;;;;;;;4.00;4.00;;;;;;;;5005379;28;45496;-73
2023/08/22 06:27:09;;;;;;;;;5.33;3.67;;;;;;;;5016455;28;45288;-72
2023/08/22 06:29:35;;;;;;;;;5.33;5.00;;;;;;;;5007848;28;45402;-72
2023/08/22 06:32:02;;;;;;;;;6.00;4.00;;;;;;;;5017978;28;45315;-72
2023/08/22 06:34:29;;;;;;;;;7.00;3.00;;;;;;;;5011428;28;45383;-72
2023/08/22 06:36:54;;;;;;;;;6.00;4.00;;;;;;;;5015279;28;45684;-73
2023/08/22 06:39:20;;;;;;;;;4.33;4.33;;;;;;;;5014666;28;45251;-72
2023/08/22 06:41:45;;;;;;;;;6.33;5.67;;;;;;;;5015800;28;45272;-72
2023/08/22 06:44:10;;;;;;;;;5.67;4.67;;;;;;;;5005545;28;45503;-72
2023/08/22 06:46:36;;;;;;;;;5.00;4.33;;;;;;;;5010309;28;45566;-72
2023/08/22 06:49:01;;;;;;;;;3.00;3.00;;;;;;;;5008019;28;45752;-72
2023/08/22 06:51:26;;;;;;;;;5.00;5.00;;;;;;;;5018987;28;45296;-73
2023/08/22 06:53:52;;;;;;;;;11.67;6.00;;;;;;;;5012087;28;45381;-71
2023/08/22 06:56:17;;;;;;;;;8.00;5.00;;;;;;;;5018202;28;46120;-70
2023/08/22 06:58:42;;;;;;;;;6.25;6.25;;;;;;;;5014125;28;45489;-71
2023/08/22 07:01:08;;;;;;;;;9.67;6.33;;;;;;;;5017255;28;45510;-71
2023/08/22 07:03:33;;;;;;;;;4.00;4.00;;;;;;;;5016459;28;45506;-71
2023/08/22 07:05:58;;;;;;;;;4.75;4.75;;;;;;;;5017523;28;45253;-71
2023/08/22 07:08:23;;;;;;;;;6.00;5.00;;;;;;;;5012418;28;45443;-71
2023/08/22 07:10:48;;;;;;;;;6.00;6.00;;;;;;;;5017808;28;45529;-71
2023/08/22 07:13:14;;;;;;;;;4.75;4.75;;;;;;;;5011597;28;45541;-71
2023/08/22 07:15:39;;;;;;;;;7.25;3.25;;;;;;;;5016234;28;47287;-71
2023/08/22 07:18:04;;;;;;;;;5.75;5.00;;;;;;;;5011908;28;45260;-71
2023/08/22 07:20:29;;;;;;;;;5.00;4.75;;;;;;;;5013385;28;45248;-72
2023/08/22 07:22:55;;;;;;;;;6.00;4.50;;;;;;;;5014565;28;45331;-71
2023/08/22 07:25:20;;;;;;;;;5.00;4.00;;;;;;;;5014040;28;45369;-71
2023/08/22 07:27:45;;;;;;;;;5.50;5.00;;;;;;;;5014484;28;45280;-72
2023/08/22 07:30:11;;;;;;;;;5.75;4.75;;;;;;;;5018763;28;45466;-72
2023/08/22 07:32:36;;;;;;;;;4.75;4.75;;;;;;;;5012567;28;45530;-72
2023/08/22 07:35:01;;;;;;;;;3.75;1.25;;;;;;;;5017678;28;47431;-72
2023/08/22 07:37:26;;;;;;;;;5.50;4.00;;;;;;;;5026499;28;45378;-72
2023/08/22 07:39:51;;;;;;;;;6.75;5.25;;;;;;;;5015062;28;45418;-72
2023/08/22 07:42:17;;;;;;;;;5.00;5.00;;;;;;;;5015085;28;45601;-72
2023/08/22 07:44:43;;;;;;;;;4.50;4.50;;;;;;;;5016212;28;45573;-72
2023/08/22 07:47:08;;;;;;;;;7.00;3.20;;;;;;;;5015585;28;45438;-72
2023/08/22 07:49:33;;;;;;;;;6.00;6.00;;;;;;;;5017273;28;45237;-72
2023/08/22 07:51:59;;;;;;;;;5.00;5.00;;;;;;;;5016107;28;45502;-72
2023/08/22 07:54:24;;;;;;;;;4.00;4.00;;;;;;;;5016874;28;46471;-72
2023/08/22 07:56:49;;;;;;;;;6.25;4.75;;;;;;;;5016817;28;45476;-72
2023/08/22 07:59:14;;;;;;;;;2.25;2.00;;;;;;;;5014057;28;45355;-72
2023/08/22 08:01:40;;;;;;;;;2.75;2.75;;;;;;;;5017539;28;45402;-72
2023/08/22 08:04:06;;;;;;;;;8.00;4.75;;;;;;;;5013403;28;46697;-77
2023/08/22 08:06:35;;;;;;;;;3.40;1.40;;;;;;;;5019991;28;46722;-76
2023/08/22 08:09:01;;;;;;;;;4.00;4.00;;;;;;;;5015330;28;45422;-76
2023/08/22 08:11:29;;;;;;;;;5.50;4.00;;;;;;;;5008842;28;45335;-76
2023/08/22 08:13:55;;;;;;;;;3.60;3.20;;;;;;;;5018650;28;47327;-74
2023/08/22 08:16:20;;;;;;;;;7.75;7.25;;;;;;;;5017806;28;45216;-75
2023/08/22 08:18:45;;;;;;;;;5.25;4.25;;;;;;;;5014429;28;45459;-74
2023/08/22 08:21:11;;;;;;;;;4.50;4.00;;;;;;;;5014047;28;45752;-75
2023/08/22 08:23:36;;;;;;;;;5.75;4.00;;;;;;;;5016027;28;45362;-74
2023/08/22 08:26:03;;;;;;;;;4.00;3.00;;;;;;;;5015289;28;45383;-74
2023/08/22 08:28:28;;;;;;;;;5.00;5.00;;;;;;;;5017314;28;45233;-76
2023/08/22 08:30:54;;;;;;;;;4.00;4.00;;;;;;;;5013374;28;45889;-74
2023/08/22 08:33:19;;;;;;;;;4.00;2.00;;;;;;;;5016284;28;48115;-75
2023/08/22 08:35:44;;;;;;;;;3.75;3.75;;;;;;;;5017365;28;45243;-75
2023/08/22 08:38:09;;;;;;;;;3.25;3.25;;;;;;;;5017858;28;45556;-76
2023/08/22 08:40:35;;;;;;;;;5.25;3.00;;;;;;;;5021391;28;45371;-75
2023/08/22 08:43:01;;;;;;;;;4.25;4.25;;;;;;;;5015956;28;47998;-75
2023/08/22 08:45:28;;;;;;;;;4.60;4.00;;;;;;;;5041819;28;45442;-76
2023/08/22 08:47:53;;;;;;;;;4.40;4.40;;;;;;;;5012549;28;45498;-75
2023/08/22 08:50:19;;;;;;;;;4.75;3.50;;;;;;;;5020420;28;46223;-74
2023/08/22 08:52:45;;;;;;;;;3.50;3.50;;;;;;;;5014607;28;47833;-74
2023/08/22 08:55:10;;;;;;;;;4.25;3.50;;;;;;;;5021355;28;45257;-75
2023/08/22 08:57:35;;;;;;;;;3.25;3.25;;;;;;;;5018704;28;45319;-75
2023/08/22 09:00:02;;;;;;;;;2.00;2.00;;;;;;;;5019743;28;45609;-75
2023/08/22 09:02:28;;;;;;;;;3.20;3.20;;;;;;;;5017558;28;48066;-75
2023/08/22 09:04:53;;;;;;;;;5.75;3.50;;;;;;;;5017128;28;45363;-75
2023/08/22 09:07:18;;;;;;;;;2.25;2.25;;;;;;;;5017276;28;45292;-75
2023/08/22 09:09:43;;;;;;;;;4.25;2.00;;;;;;;;5011490;28;45253;-75
2023/08/22 09:12:10;;;;;;;;;2.00;2.00;;;;;;;;5018221;28;46503;-75
2023/08/22 09:14:43;;;;;;;;;4.50;2.00;;;;;;;;5011186;28;45330;-75
2023/08/22 09:17:08;;;;;;;;;2.60;2.60;;;;;;;;5017466;28;45446;-75
2023/08/22 09:19:34;;;;;;;;;3.00;2.50;;;;;;;;5011811;28;45187;-74
2023/08/22 09:22:03;;;;;;;;;5.00;3.00;;;;;;;;5016937;28;47406;-75
2023/08/22 09:24:28;;;;;;;;;3.00;2.40;;;;;;;;5016326;28;45334;-75
2023/08/22 09:26:54;;;;;;;;;1.25;1.25;;;;;;;;5019080;28;45706;-75
2023/08/22 09:29:29;;;;;;;;;2.75;1.00;;;;;;;;5014967;28;45421;-76
2023/08/22 09:32:02;;;;;;;;;3.00;2.00;;;;;;;;5009059;28;45439;-76
2023/08/22 09:34:27;;;;;;;;;2.20;2.20;;;;;;;;5008191;28;45475;-75
2023/08/22 09:36:56;;;;;;;;;3.00;3.00;;;;;;;;5018037;28;45548;-76
2023/08/22 09:39:22;;;;;;;;;1.80;1.80;;;;;;;;5008728;28;46884;-75
2023/08/22 09:41:57;;;;;;;;;1.40;1.40;;;;;;;;5019205;28;46872;-75
2023/08/22 09:44:23;;;;;;;;;2.20;1.20;;;;;;;;5011802;28;45285;-75
2023/08/22 09:46:49;;;;;;;;;4.20;4.00;;;;;;;;5019654;28;45264;-75
2023/08/22 09:49:15;;;;;;;;;0.75;0.75;;;;;;;;5006301;28;45559;-75
2023/08/22 09:51:42;;;;;;;;;3.60;1.40;;;;;;;;5003818;28;45501;-76
2023/08/22 09:54:08;;;;;;;;;1.00;1.00;;;;;;;;5010287;28;45310;-75
2023/08/22 09:56:34;;;;;;;;;1.00;1.00;;;;;;;;5003463;28;45428;-76
2023/08/22 09:59:01;;;;;;;;;0.00;0.00;;;;;;;;5008531;28;45313;-76
2023/08/22 10:01:28;;;;;;;;;2.00;2.00;;;;;;;;5002711;28;46593;-76
2023/08/22 10:03:54;;;;;;;;;1.80;1.60;;;;;;;;5039168;28;45466;-77
2023/08/22 10:06:20;;;;;;;;;1.40;1.00;;;;;;;;5002367;28;45341;-75
2023/08/22 10:08:45;;;;;;;;;1.50;0.50;;;;;;;;5009730;28;46176;-76
2023/08/22 10:11:16;;;;;;;;;2.00;0.00;;;;;;;;5006367;28;47461;-75
2023/08/22 10:13:42;;;;;;;;;1.40;1.40;;;;;;;;5004221;28;45339;-76
2023/08/22 10:16:08;;;;;;;;;1.40;1.40;;;;;;;;5001867;28;45528;-76
2023/08/22 10:18:33;;;;;;;;;1.50;1.50;;;;;;;;5012023;28;46373;-76
2023/08/22 10:20:58;;;;;;;;;1.25;1.25;;;;;;;;5014942;28;45471;-75
2023/08/22 10:23:53;;;;;;;;;2.00;1.25;;;;;;;;5014268;28;45394;-76
2023/08/22 10:26:25;;;;;;;;;6.00;6.00;;;;;;;;5003427;28;45250;-77
2023/08/22 10:29:09;;;;;;;;;1.20;1.00;;;;;;;;5011154;28;45294;-76
2023/08/22 10:31:54;;;;;;;;;0.80;0.00;;;;;;;;5011759;28;46638;-76
2023/08/22 10:34:19;;;;;;;;;1.40;1.40;;;;;;;;5010470;28;45371;-76
2023/08/22 10:36:59;;;;;;;;;2.00;1.00;;;;;;;;5011388;28;45212;-75
2023/08/22 10:39:40;;;;;;;;;1.80;1.80;;;;;;;;5011138;28;45481;-75
2023/08/22 10:42:06;;;;;;;;;1.20;1.20;;;;;;;;5015396;28;45427;-76
2023/08/22 10:44:31;;;;;;;;;0.00;0.00;;;;;;;;5010947;28;45516;-75
2023/08/22 10:47:03;;;;;;;;;0.00;0.00;;;;;;;;5017387;28;45439;-75
2023/08/22 10:49:33;;;;;;;;;1.20;1.20;;;;;;;;5010980;28;45491;-75
2023/08/22 10:52:07;;;;;;;;;2.40;1.00;;;;;;;;5018472;28;46779;-75
2023/08/22 10:54:33;;;;;;;;;2.60;1.00;;;;;;;;5018886;28;45394;-74
2023/08/22 10:57:17;;;;;;;;;2.00;2.00;;;;;;;;5017504;28;45292;-76
2023/08/22 11:00:13;;;;;;;;;2.00;2.00;;;;;;;;5008178;28;45505;-78
2023/08/22 11:02:39;;;;;;;;;4.20;2.60;;;;;;;;5012410;28;45537;-75
2023/08/22 11:05:10;;;;;;;;;3.00;1.75;;;;;;;;5006753;28;45735;-76
2023/08/22 11:07:35;;;;;;;;;3.20;3.00;;;;;;;;5002696;28;46184;-75
2023/08/22 11:10:01;;;;;;;;;1.50;1.50;;;;;;;;5011256;28;45272;-76
2023/08/22 11:12:27;;;;;;;;;0.00;0.00;;;;;;;;5015631;28;45363;-75
2023/08/22 11:14:53;;;;;;;;;1.40;1.20;;;;;;;;5011040;28;45237;-76
2023/08/22 11:17:19;;;;;;;;;2.25;1.00;;;;;;;;5015508;28;45421;-76
2023/08/22 11:19:45;;;;;;;;;2.60;1.80;;;;;;;;5011317;28;45426;-75
2023/08/22 11:22:10;;;;;;;;;2.25;2.25;;;;;;;;5016316;28;45339;-75
2023/08/22 11:24:36;;;;;;;;;2.25;1.00;;;;;;;;5012510;28;45291;-76
2023/08/22 11:27:04;;;;;;;;;1.50;1.00;;;;;;;;5016517;28;45365;-75
2023/08/22 11:29:29;;;;;;;;;1.00;1.00;;;;;;;;5013272;28;47152;-75
2023/08/22 11:31:55;;;;;;;;;1.50;1.50;;;;;;;;5016145;28;46499;-75
2023/08/22 11:34:23;;;;;;;;;0.25;0.25;;;;;;;;5015998;28;45324;-76
2023/08/22 11:36:48;;;;;;;;;2.60;0.80;;;;;;;;5017328;28;45353;-76
2023/08/22 11:39:14;;;;;;;;;2.00;2.00;;;;;;;;5009249;28;45617;-75
2023/08/22 11:41:39;;;;;;;;;18.75;17.00;;;;;;;;5021064;28;45427;-75
2023/08/22 11:44:05;;;;;;;;;26.75;24.25;;;;;;;;5013478;28;45451;-75
2023/08/22 11:46:33;;;;;;;;;3.00;1.60;;;;;;;;5022382;28;45285;-76
2023/08/22 11:49:04;;;;;;;;;1.20;1.20;;;;;;;;5015918;28;45471;-76
2023/08/22 11:51:29;;;;;;;;;3.60;1.60;;;;;;;;5020894;28;48209;-77
2023/08/22 11:53:55;;;;;;;;;2.75;1.75;;;;;;;;5011043;28;45388;-76
2023/08/22 11:56:20;;;;;;;;;1.00;1.00;;;;;;;;5022181;28;45370;-76
2023/08/22 11:58:50;;;;;;;;;6.00;2.25;;;;;;;;5013440;28;45351;-76
2023/08/22 12:01:15;;;;;;;;;2.00;1.00;;;;;;;;5016131;28;45611;-76
2023/08/22 12:03:41;;;;;;;;;4.00;0.50;;;;;;;;5015086;28;45397;-75
2023/08/22 12:06:13;;;;;;;;;1.25;0.25;;;;;;;;5014724;28;45314;-75
2023/08/22 12:08:38;;;;;;;;;0.60;0.60;;;;;;;;5014187;28;45954;-77
2023/08/22 12:11:03;;;;;;;;;1.00;1.00;;;;;;;;5013593;28;47780;-78
2023/08/22 12:13:29;;;;;;;;;1.00;1.00;;;;;;;;5015728;28;45244;-75
2023/08/22 12:15:54;;;;;;;;;1.00;1.00;;;;;;;;5016613;28;45299;-75
2023/08/22 12:18:27;;;;;;;;;1.00;1.00;;;;;;;;5014742;28;45356;-74
2023/08/22 12:20:52;;;;;;;;;3.00;1.80;;;;;;;;5017274;28;45508;-76
2023/08/22 12:23:17;;;;;;;;;1.00;1.00;;;;;;;;5010112;28;45463;-76
2023/08/22 12:25:43;;;;;;;;;1.00;1.00;;;;;;;;5014947;28;45319;-76
2023/08/22 12:28:09;;;;;;;;;2.20;1.00;;;;;;;;5017362;28;45577;-76
2023/08/22 12:30:35;;;;;;;;;2.40;2.40;;;;;;;;5017940;28;47380;-76
2023/08/22 12:33:04;;;;;;;;;3.00;2.20;;;;;;;;5015440;28;45281;-76
2023/08/22 12:35:33;;;;;;;;;1.80;1.20;;;;;;;;5010532;28;45173;-76
2023/08/22 12:37:59;;;;;;;;;2.00;1.80;;;;;;;;5008334;28;45296;-77
2023/08/22 12:40:24;;;;;;;;;1.25;1.25;;;;;;;;5014787;28;46683;-76
2023/08/22 12:42:49;;;;;;;;;2.00;2.00;;;;;;;;5018249;28;45518;-74
2023/08/22 12:45:15;;;;;;;;;3.75;3.00;;;;;;;;5014952;28;45321;-77
2023/08/22 12:47:43;;;;;;;;;3.00;3.00;;;;;;;;5014686;28;45323;-77
2023/08/22 12:50:08;;;;;;;;;2.80;1.80;;;;;;;;5001993;28;47055;-77
2023/08/22 12:52:34;;;;;;;;;1.00;1.00;;;;;;;;5014561;28;45526;-76
2023/08/22 12:55:00;;;;;;;;;2.25;2.25;;;;;;;;5010381;28;45404;-75
2023/08/22 12:57:25;;;;;;;;;3.60;1.00;;;;;;;;5016462;28;46158;-75
2023/08/22 12:59:51;;;;;;;;;4.00;3.00;;;;;;;;5007594;28;45493;-77
2023/08/22 13:02:16;;;;;;;;;4.50;1.50;;;;;;;;5017148;28;45466;-76
2023/08/22 13:04:41;;;;;;;;;2.50;1.75;;;;;;;;5010002;28;45430;-77
2023/08/22 13:07:06;;;;;;;;;3.00;2.75;;;;;;;;5018859;28;45674;-77
2023/08/22 13:09:33;;;;;;;;;2.50;2.50;;;;;;;;5010190;28;45594;-77
2023/08/22 13:11:59;;;;;;;;;1.20;1.20;;;;;;;;5017243;28;45351;-74
2023/08/22 13:14:24;;;;;;;;;2.25;2.00;;;;;;;;5011340;28;45380;-75
2023/08/22 13:16:49;;;;;;;;;1.75;1.75;;;;;;;;5018920;28;45550;-75
2023/08/22 13:19:15;;;;;;;;;3.00;2.00;;;;;;;;5010188;28;46520;-77
2023/08/22 13:21:40;;;;;;;;;3.75;2.25;;;;;;;;5019713;28;45281;-75
2023/08/22 13:24:05;;;;;;;;;1.50;1.50;;;;;;;;5016834;28;45279;-75
2023/08/22 13:26:30;;;;;;;;;4.25;2.00;;;;;;;;5015414;28;47207;-74
2023/08/22 13:28:55;;;;;;;;;3.00;3.00;;;;;;;;5005590;28;45389;-75
2023/08/22 13:31:21;;;;;;;;;4.50;3.00;;;;;;;;5019533;28;45639;-76
2023/08/22 13:33:46;;;;;;;;;3.00;2.00;;;;;;;;5008538;28;45367;-75
2023/08/22 13:36:11;;;;;;;;;3.50;2.00;;;;;;;;5018765;28;45249;-76
2023/08/22 13:38:36;;;;;;;;;1.75;1.75;;;;;;;;5015146;28;46872;-77
2023/08/22 13:41:02;;;;;;;;;2.75;2.75;;;;;;;;5019221;28;45378;-77
2023/08/22 13:43:27;;;;;;;;;3.00;1.50;;;;;;;;5011328;28;45261;-77
2023/08/22 13:45:52;;;;;;;;;2.75;1.25;;;;;;;;5018151;28;45268;-78
2023/08/22 13:48:17;;;;;;;;;2.00;1.00;;;;;;;;5008873;28;46712;-78
2023/08/22 13:50:43;;;;;;;;;2.75;2.75;;;;;;;;5018015;28;45265;-79
2023/08/22 13:53:08;;;;;;;;;3.25;2.00;;;;;;;;5011507;28;45279;-79
2023/08/22 13:55:33;;;;;;;;;4.50;3.75;;;;;;;;5006682;28;45333;-76
2023/08/22 13:57:58;;;;;;;;;2.75;2.50;;;;;;;;5009644;28;46749;-75
2023/08/22 14:00:24;;;;;;;;;4.50;3.00;;;;;;;;5014614;28;45678;-75
2023/08/22 14:02:49;;;;;;;;;2.75;2.75;;;;;;;;5016484;28;45346;-76
2023/08/22 14:05:14;;;;;;;;;2.25;2.25;;;;;;;;5012166;28;45276;-76
2023/08/22 14:07:40;;;;;;;;;3.25;2.25;;;;;;;;5012754;28;48342;-74
2023/08/22 14:10:05;;;;;;;;;2.25;2.25;;;;;;;;5006818;28;45260;-77
2023/08/22 14:12:30;;;;;;;;;3.25;2.25;;;;;;;;5010853;28;45274;-76
2023/08/22 14:14:56;;;;;;;;;3.25;3.25;;;;;;;;5012749;28;45469;-73
2023/08/22 14:17:21;;;;;;;;;3.75;3.75;;;;;;;;5016237;28;46081;-76
2023/08/22 14:19:48;;;;;;;;;4.75;4.25;;;;;;;;5004107;28;45446;-74
2023/08/22 14:22:13;;;;;;;;;6.60;5.20;;;;;;;;5006608;28;45619;-72
2023/08/22 14:24:38;;;;;;;;;3.00;3.00;;;;;;;;5007379;28;45413;-75
2023/08/22 14:27:03;;;;;;;;;4.50;3.00;;;;;;;;5008225;28;45429;-75
2023/08/22 14:29:29;;;;;;;;;4.75;4.25;;;;;;;;5007375;28;45356;-75
2023/08/22 14:31:54;;;;;;;;;4.00;4.00;;;;;;;;5002178;28;45593;-75
2023/08/22 14:34:19;;;;;;;;;3.00;3.00;;;;;;;;5013543;28;45935;-76
2023/08/22 14:36:44;;;;;;;;;3.00;3.00;;;;;;;;5000679;28;45384;-76
2023/08/22 14:39:10;;;;;;;;;3.00;3.00;;;;;;;;5002456;28;45439;-77
2023/08/22 14:41:35;;;;;;;;;4.00;4.00;;;;;;;;4999035;28;45340;-75
2023/08/22 14:44:03;;;;;;;;;4.25;4.00;;;;;;;;5008467;28;45349;-76
2023/08/22 14:46:28;;;;;;;;;2.60;2.00;;;;;;;;5009688;28;46371;-76
2023/08/22 14:48:54;;;;;;;;;4.00;4.00;;;;;;;;5012518;28;45304;-75
2023/08/22 14:51:19;;;;;;;;;5.75;2.75;;;;;;;;5018893;28;45439;-76
2023/08/22 14:53:44;;;;;;;;;2.75;2.75;;;;;;;;5010668;28;45490;-75
2023/08/22 14:56:09;;;;;;;;;3.00;3.00;;;;;;;;5019386;28;46440;-72
2023/08/22 14:58:41;;;;;;;;;9.00;3.00;;;;;;;;5013181;28;45249;-73
2023/08/22 15:01:07;;;;;;;;;5.00;4.00;;;;;;;;5019628;28;45446;-74
2023/08/22 15:03:33;;;;;;;;;6.00;4.00;;;;;;;;5012738;28;45454;-73
2023/08/22 15:05:58;;;;;;;;;4.00;4.00;;;;;;;;5016998;28;45317;-73
2023/08/22 15:08:24;;;;;;;;;4.00;4.00;;;;;;;;5010878;28;45335;-77
2023/08/22 15:10:50;;;;;;;;;4.80;4.80;;;;;;;;5017495;28;45501;-76
2023/08/22 15:13:16;;;;;;;;;5.50;3.75;;;;;;;;5005576;28;45378;-79
2023/08/22 15:15:41;;;;;;;;;3.50;3.50;;;;;;;;4998637;28;45326;-77
2023/08/22 15:18:06;;;;;;;;;4.00;4.00;;;;;;;;5001811;28;45392;-77
2023/08/22 15:20:32;;;;;;;;;10.00;7.25;;;;;;;;5000148;28;45502;-77
2023/08/22 15:22:58;;;;;;;;;10.00;8.25;;;;;;;;5002055;28;45756;-76
2023/08/22 15:25:23;;;;;;;;;2.00;1.50;;;;;;;;5008654;28;47007;-78
2023/08/22 15:27:49;;;;;;;;;3.00;3.00;;;;;;;;5015202;28;45409;-76
2023/08/22 15:30:14;;;;;;;;;4.00;2.75;;;;;;;;5004061;28;45359;-75
2023/08/22 15:32:39;;;;;;;;;5.25;4.50;;;;;;;;5009213;28;45449;-76
2023/08/22 15:35:04;;;;;;;;;2.25;2.25;;;;;;;;5003423;28;45415;-78
2023/08/22 15:37:30;;;;;;;;;3.00;3.00;;;;;;;;5039710;28;45369;-77
2023/08/22 15:40:00;;;;;;;;;4.25;4.25;;;;;;;;5003054;28;45617;-78
2023/08/22 15:42:25;;;;;;;;;4.20;4.00;;;;;;;;5005276;28;45405;-77
2023/08/22 15:44:51;;;;;;;;;3.25;3.25;;;;;;;;5002374;28;45404;-78
2023/08/22 15:47:16;;;;;;;;;3.60;3.00;;;;;;;;5003256;28;45470;-76
2023/08/22 15:49:42;;;;;;;;;7.00;4.00;;;;;;;;5007237;28;45266;-77
2023/08/22 15:52:07;;;;;;;;;4.00;3.75;;;;;;;;5011955;28;45474;-77
2023/08/22 15:54:32;;;;;;;;;4.00;4.00;;;;;;;;5004818;28;47415;-76
2023/08/22 15:56:57;;;;;;;;;4.25;4.00;;;;;;;;5013866;28;45737;-79
2023/08/22 15:59:22;;;;;;;;;4.50;4.00;;;;;;;;5004848;28;45613;-79
2023/08/22 16:01:48;;;;;;;;;4.75;3.00;;;;;;;;5005849;28;45795;-80
2023/08/22 16:04:13;;;;;;;;;15.75;12.75;;;;;;;;5010628;28;46307;-79
2023/08/22 16:06:38;;;;;;;;;5.25;5.25;;;;;;;;5014090;28;45351;-79
2023/08/22 16:09:03;;;;;;;;;8.00;6.00;;;;;;;;5011543;28;45458;-77
2023/08/22 16:11:28;;;;;;;;;5.75;4.75;;;;;;;;5013956;28;45490;-77
2023/08/22 16:13:54;;;;;;;;;3.00;3.00;;;;;;;;5002258;28;46541;-76
2023/08/22 16:16:19;;;;;;;;;4.50;4.50;;;;;;;;5000241;28;45277;-77
2023/08/22 16:18:44;;;;;;;;;3.00;3.00;;;;;;;;5001475;28;45478;-76
2023/08/22 16:21:09;;;;;;;;;4.75;4.00;;;;;;;;5017604;28;45678;-76
2023/08/22 16:23:35;;;;;;;;;5.00;2.00;;;;;;;;5009288;28;46702;-76
2023/08/22 16:26:00;;;;;;;;;5.25;4.00;;;;;;;;5016103;28;45398;-78
2023/08/22 16:28:25;;;;;;;;;3.00;3.00;;;;;;;;5014189;28;45339;-76
2023/08/22 16:30:52;;;;;;;;;4.00;4.00;;;;;;;;5012079;28;45375;-81
2023/08/22 16:33:17;;;;;;;;;3.00;3.00;;;;;;;;5013788;28;45628;-79
2023/08/22 16:35:49;;;;;;;;;5.75;3.75;;;;;;;;5012051;28;45217;-76
2023/08/22 16:38:14;;;;;;;;;5.20;5.20;;;;;;;;5012965;28;45420;-76
2023/08/22 16:40:39;;;;;;;;;4.75;4.75;;;;;;;;5015286;28;45274;-77
2023/08/22 16:43:05;;;;;;;;;6.00;4.25;;;;;;;;5014371;28;45601;-77
2023/08/22 16:45:30;;;;;;;;;3.25;3.00;;;;;;;;5014739;28;45363;-78
2023/08/22 16:47:55;;;;;;;;;2.50;2.50;;;;;;;;5011902;28;45422;-78
2023/08/22 16:50:20;;;;;;;;;3.00;2.00;;;;;;;;5014363;28;45295;-75
2023/08/22 16:52:46;;;;;;;;;3.50;3.00;;;;;;;;5013619;28;45450;-76
2023/08/22 16:55:11;;;;;;;;;3.00;3.00;;;;;;;;5018077;28;45347;-83
2023/08/22 16:57:36;;;;;;;;;6.25;2.00;;;;;;;;5012481;28;46091;-84
2023/08/22 17:00:06;;;;;;;;;4.75;4.00;;;;;;;;5018138;28;45281;-90
2023/08/22 17:02:31;;;;;;;;;5.20;3.40;;;;;;;;5013543;28;46112;-87
2023/08/22 17:04:56;;;;;;;;;2.00;2.00;;;;;;;;5015666;28;45351;-81
2023/08/22 17:07:21;;;;;;;;;3.25;2.50;;;;;;;;5016716;28;45339;-85
2023/08/22 17:09:46;;;;;;;;;2.25;2.25;;;;;;;;5016016;28;45401;-82
2023/08/22 17:12:12;;;;;;;;;3.75;3.75;;;;;;;;5017189;28;47563;-83
2023/08/22 17:14:37;;;;;;;;;7.00;4.00;;;;;;;;5014457;28;45326;-81
2023/08/22 17:17:03;;;;;;;;;4.00;2.25;;;;;;;;5016202;28;45367;-81
2023/08/22 17:19:29;;;;;;;;;2.20;2.20;;;;;;;;5004861;28;45674;-80
2023/08/22 17:21:54;;;;;;;;;3.00;2.00;;;;;;;;5015650;28;46346;-81
2023/08/22 17:24:19;;;;;;;;;4.00;4.00;;;;;;;;5012398;28;45241;-78
2023/08/22 17:26:49;;;;;;;;;3.50;3.50;;;;;;;;5019113;28;45626;-80
2023/08/22 17:29:14;;;;;;;;;4.20;4.20;;;;;;;;5013009;28;45483;-79
2023/08/22 17:31:39;;;;;;;;;3.00;3.00;;;;;;;;5016089;28;46428;-79
2023/08/22 17:34:04;;;;;;;;;3.00;3.00;;;;;;;;5009794;28;45397;-79
2023/08/22 17:36:30;;;;;;;;;5.00;5.00;;;;;;;;5015831;28;45448;-77
2023/08/22 17:38:55;;;;;;;;;4.25;2.75;;;;;;;;5007425;28;46845;-77
2023/08/22 17:41:20;;;;;;;;;5.00;4.00;;;;;;;;5013733;28;46893;-77
2023/08/22 17:43:45;;;;;;;;;3.00;3.00;;;;;;;;5005223;28;45371;-79
2023/08/22 17:46:12;;;;;;;;;6.50;5.00;;;;;;;;5008394;28;45476;-77
2023/08/22 17:48:37;;;;;;;;;4.20;4.20;;;;;;;;5005753;28;46613;-77
2023/08/22 17:51:03;;;;;;;;;2.50;2.50;;;;;;;;5013964;28;46368;-78
2023/08/22 17:53:28;;;;;;;;;4.75;4.00;;;;;;;;5013743;28;45463;-79
2023/08/22 17:55:54;;;;;;;;;4.25;3.50;;;;;;;;5019821;28;45438;-78
2023/08/22 17:58:20;;;;;;;;;3.25;2.75;;;;;;;;5011399;28;45483;-77
2023/08/22 18:00:48;;;;;;;;;3.20;3.20;;;;;;;;5018889;28;45528;-78
2023/08/22 18:03:14;;;;;;;;;2.00;2.00;;;;;;;;5011508;28;45457;-78
2023/08/22 18:05:40;;;;;;;;;4.75;2.75;;;;;;;;5015452;28;45581;-77
2023/08/22 18:08:05;;;;;;;;;3.75;3.50;;;;;;;;5010927;28;48008;-77
2023/08/22 18:10:31;;;;;;;;;4.00;4.00;;;;;;;;5014197;28;46381;-76
2023/08/22 18:12:56;;;;;;;;;3.50;3.50;;;;;;;;5007163;28;45537;-77
2023/08/22 18:15:22;;;;;;;;;4.75;3.00;;;;;;;;5013978;28;45383;-76
2023/08/22 18:17:47;;;;;;;;;5.20;3.20;;;;;;;;5006781;28;46225;-78
2023/08/22 18:20:12;;;;;;;;;3.50;3.50;;;;;;;;5006901;28;45411;-79
2023/08/22 18:22:38;;;;;;;;;4.75;4.75;;;;;;;;5009534;28;45277;-77
2023/08/22 18:25:04;;;;;;;;;3.25;3.25;;;;;;;;5014647;28;45426;-80
2023/08/22 18:27:29;;;;;;;;;6.80;4.80;;;;;;;;5012959;28;45397;-78
2023/08/22 18:29:54;;;;;;;;;6.25;4.25;;;;;;;;5010179;28;46337;-80
2023/08/22 18:32:19;;;;;;;;;6.00;5.00;;;;;;;;5007908;28;45288;-79
2023/08/22 18:34:45;;;;;;;;;4.75;3.50;;;;;;;;5016136;28;45380;-79
2023/08/22 18:37:10;;;;;;;;;3.75;3.75;;;;;;;;5005879;28;45322;-80
2023/08/22 18:39:35;;;;;;;;;2.00;2.00;;;;;;;;5009011;28;46656;-76
2023/08/22 18:42:00;;;;;;;;;4.25;2.50;;;;;;;;5009177;28;45242;-79
2023/08/22 18:44:26;;;;;;;;;4.00;4.00;;;;;;;;5008628;28;45407;-76
2023/08/22 18:46:51;;;;;;;;;5.50;4.00;;;;;;;;5004250;28;45551;-77
2023/08/22 18:49:16;;;;;;;;;7.50;5.75;;;;;;;;5008510;28;46172;-78
2023/08/22 18:51:43;;;;;;;;;3.00;3.00;;;;;;;;5003234;28;45383;-76
2023/08/22 18:54:08;;;;;;;;;4.00;4.00;;;;;;;;5009108;28;45476;-76
2023/08/22 18:56:33;;;;;;;;;4.00;4.00;;;;;;;;5035115;28;47274;-77
2023/08/22 18:59:01;;;;;;;;;3.00;3.00;;;;;;;;5008270;28;45399;-76
2023/08/22 19:01:26;;;;;;;;;3.40;2.60;;;;;;;;5006891;28;45264;-76
2023/08/22 19:03:51;;;;;;;;;2.75;2.75;;;;;;;;5012076;28;45668;-78
2023/08/22 19:06:17;;;;;;;;;4.25;4.00;;;;;;;;5009347;28;45455;-76
2023/08/22 19:08:42;;;;;;;;;4.75;3.50;;;;;;;;5011448;28;45476;-77
2023/08/22 19:11:08;;;;;;;;;4.25;4.25;;;;;;;;5008252;28;45364;-76
2023/08/22 19:13:33;;;;;;;;;0.75;0.00;;;;;;;;5011126;28;45395;-77
2023/08/22 19:15:58;;;;;;;;;4.25;4.25;;;;;;;;5013392;28;45689;-78
2023/08/22 19:18:23;;;;;;;;;4.25;4.25;;;;;;;;5007620;28;45461;-77
2023/08/22 19:20:50;;;;;;;;;7.00;5.75;;;;;;;;5008890;28;45298;-77
2023/08/22 19:23:15;;;;;;;;;6.00;6.00;;;;;;;;5012480;28;45289;-78
2023/08/22 19:25:41;;;;;;;;;4.00;3.25;;;;;;;;5014531;28;45489;-77
2023/08/22 19:28:06;;;;;;;;;5.25;4.00;;;;;;;;5014959;28;45482;-77
2023/08/22 19:30:31;;;;;;;;;9.50;5.00;;;;;;;;5009038;28;45288;-77
2023/08/22 19:32:57;;;;;;;;;4.25;4.25;;;;;;;;5015017;28;45407;-77
2023/08/22 19:35:22;;;;;;;;;6.50;3.75;;;;;;;;5008037;28;47074;-75
2023/08/22 19:37:47;;;;;;;;;5.50;5.00;;;;;;;;5045868;28;47368;-76
2023/08/22 19:40:12;;;;;;;;;5.50;4.25;;;;;;;;5006622;28;45229;-77
2023/08/22 19:42:38;;;;;;;;;4.75;4.25;;;;;;;;5012266;28;45311;-78
2023/08/22 19:45:04;;;;;;;;;6.50;5.00;;;;;;;;5007497;28;45135;-78
2023/08/22 19:47:29;;;;;;;;;5.60;4.40;;;;;;;;5007879;28;48276;-76
2023/08/22 19:49:55;;;;;;;;;4.75;4.25;;;;;;;;5007418;28;45418;-77
2023/08/22 19:52:24;;;;;;;;;5.25;4.25;;;;;;;;5008666;28;45171;-77
2023/08/22 19:54:50;;;;;;;;;4.60;3.40;;;;;;;;5005357;28;45483;-77
2023/08/22 19:57:15;;;;;;;;;2.50;1.00;;;;;;;;5008963;28;48028;-77
2023/08/22 19:59:40;;;;;;;;;4.25;4.25;;;;;;;;5005155;28;45368;-76
2023/08/22 20:02:07;;;;;;;;;7.50;4.25;;;;;;;;5015338;28;45442;-77
2023/08/22 20:04:32;;;;;;;;;4.20;2.20;;;;;;;;5010451;28;47002;-77
2023/08/22 20:06:57;;;;;;;;;3.00;3.00;;;;;;;;5017530;28;46399;-77
2023/08/22 20:09:24;;;;;;;;;4.00;4.00;;;;;;;;5015477;28;45141;-78
2023/08/22 20:11:50;;;;;;;;;3.50;3.00;;;;;;;;5018232;28;45288;-78
2023/08/22 20:14:15;;;;;;;;;3.00;3.00;;;;;;;;5013542;28;45253;-79
2023/08/22 20:16:40;;;;;;;;;2.00;2.00;;;;;;;;5017015;28;45415;-76
2023/08/22 20:19:05;;;;;;;;;2.25;2.25;;;;;;;;5010298;28;45380;-77
2023/08/22 20:21:31;;;;;;;;;3.75;2.50;;;;;;;;5015250;28;45170;-76
2023/08/22 20:23:56;;;;;;;;;0.00;0.00;;;;;;;;5008432;28;45384;-82
2023/08/22 20:26:22;;;;;;;;;3.50;3.00;;;;;;;;5013347;28;45585;-77
2023/08/22 20:28:47;;;;;;;;;4.00;2.75;;;;;;;;5007951;28;45332;-78
2023/08/22 20:31:13;;;;;;;;;3.00;2.50;;;;;;;;5008219;28;45332;-78
2023/08/22 20:33:38;;;;;;;;;1.75;1.75;;;;;;;;5012548;28;45542;-78
2023/08/22 20:36:03;;;;;;;;;3.00;2.00;;;;;;;;5013195;28;46883;-77
2023/08/22 20:38:28;;;;;;;;;3.25;3.25;;;;;;;;5013990;28;45500;-78
2023/08/22 20:40:54;;;;;;;;;6.75;3.75;;;;;;;;5012644;28;45307;-78
2023/08/22 20:43:19;;;;;;;;;3.00;2.50;;;;;;;;5006309;28;45416;-78
2023/08/22 20:45:44;;;;;;;;;3.00;3.00;;;;;;;;5012024;28;45491;-78
2023/08/22 20:48:09;;;;;;;;;3.00;2.00;;;;;;;;5006751;28;45236;-78
2023/08/22 20:50:35;;;;;;;;;1.25;0.25;;;;;;;;5013589;28;45542;-78
2023/08/22 20:53:00;;;;;;;;;3.75;2.50;;;;;;;;5012205;28;45471;-78